PWSweather.com
Personal Weather Stations
Station Observations
MADWEATHER
MadeiraPT

MadeiraPT

Lat: 32.735, Lon: -17.194

Elevation: 1063

Station Type: Davis VantagePro2

Latest ConditionsUpdated 3:10:02 AM GMT Friday, Apr 25, 2014
Currently Today's Max Today's Min Today's Average
Temperature 56.6°F13.7°C 58.2°F14.6°C 56.1°F13.4°C 57.1°F13.9°C
Dew Point 49.8°F9.9°C 49.9°F9.9°C 48.6°F9.2°C 49.2°F9.6°C
Winds Calm Calm 5.2 mph NE8.4 kmh NE - 3.1 mph 5.0 kmh
Wind Gusts -- 9.0 mph14.5 kmh - -
Humidity 78% 78% 72% 75%
Pressure 30.27 in1025.1 mb 30.31 in1026.4 mb 30.27 in1025.1 mb -
Hour Temp Dew Point Humidity Winds Wind Gusts Pressure Precip Precip Rate Daily Precip Total
03:10 AM 56.6°F13.7°C 49.8°F9.9°C 78% Calm Calm -- 30.27 in1025.1 mb 0.00 in0.0 mm 0.00 in/hr0.0 mm/hr 0.00 in0.0 mm
03:00 AM 56.1°F13.4°C 48.6°F9.2°C 76% 3.5 mph NE5.6 kmh NE 4.0 mph6.4 kmh 30.27 in1025.1 mb 0.00 in0.0 mm 0.00 in/hr0.0 mm/hr 0.00 in0.0 mm
02:50 AM 56.4°F13.6°C 48.9°F9.4°C 76% 3.0 mph NE4.8 kmh NE 4.0 mph6.4 kmh 30.27 in1025.1 mb 0.00 in0.0 mm 0.00 in/hr0.0 mm/hr 0.00 in0.0 mm
02:40 AM 56.4°F13.6°C 48.9°F9.4°C 76% 3.6 mph NE5.8 kmh NE 6.0 mph9.7 kmh 30.27 in1025.1 mb 0.00 in0.0 mm 0.00 in/hr0.0 mm/hr 0.00 in0.0 mm
02:30 AM 56.6°F13.7°C 49.1°F9.5°C 76% 5.2 mph NE8.4 kmh NE 9.0 mph14.5 kmh 30.27 in1025.1 mb 0.00 in0.0 mm 0.00 in/hr0.0 mm/hr 0.00 in0.0 mm
02:20 AM 56.7°F13.7°C 49.2°F9.6°C 76% 3.5 mph NE5.6 kmh NE 5.0 mph8.0 kmh 30.28 in1025.4 mb 0.00 in0.0 mm 0.00 in/hr0.0 mm/hr 0.00 in0.0 mm
02:10 AM 56.7°F13.7°C 48.9°F9.4°C 75% 2.9 mph ENE4.7 kmh ENE 4.0 mph6.4 kmh 30.28 in1025.4 mb 0.00 in0.0 mm 0.00 in/hr0.0 mm/hr 0.00 in0.0 mm
02:00 AM 56.4°F13.6°C 49.3°F9.6°C 77% 2.8 mph ENE4.5 kmh ENE 4.0 mph6.4 kmh 30.29 in1025.7 mb 0.00 in0.0 mm 0.00 in/hr0.0 mm/hr 0.00 in0.0 mm
01:50 AM 56.4°F13.6°C 49.0°F9.4°C 76% 3.7 mph ENE6.0 kmh ENE 4.0 mph6.4 kmh 30.29 in1025.7 mb 0.00 in0.0 mm 0.00 in/hr0.0 mm/hr 0.00 in0.0 mm
01:40 AM 57.1°F13.9°C 49.6°F9.8°C 76% 4.0 mph ENE6.4 kmh ENE 5.0 mph8.0 kmh 30.29 in1025.7 mb 0.00 in0.0 mm 0.00 in/hr0.0 mm/hr 0.00 in0.0 mm
01:30 AM 57.1°F13.9°C 49.2°F9.6°C 75% 3.5 mph ENE5.6 kmh ENE 4.0 mph6.4 kmh 30.29 in1025.7 mb 0.00 in0.0 mm 0.00 in/hr0.0 mm/hr 0.00 in0.0 mm
01:20 AM 57.4°F14.1°C 49.9°F9.9°C 76% 2.0 mph ENE3.2 kmh ENE 3.0 mph4.8 kmh 30.30 in1026.1 mb 0.00 in0.0 mm 0.00 in/hr0.0 mm/hr 0.00 in0.0 mm
01:10 AM 57.5°F14.2°C 48.9°F9.4°C 73% 2.2 mph ENE3.5 kmh ENE 5.0 mph8.0 kmh 30.30 in1026.1 mb 0.00 in0.0 mm 0.00 in/hr0.0 mm/hr 0.00 in0.0 mm
01:00 AM 57.6°F14.2°C 49.4°F9.7°C 74% 3.1 mph ENE5.0 kmh ENE 4.0 mph6.4 kmh 30.30 in1026.1 mb 0.00 in0.0 mm 0.00 in/hr0.0 mm/hr 0.00 in0.0 mm
12:50 AM 57.7°F14.3°C 48.7°F9.3°C 72% 2.0 mph ENE3.2 kmh ENE 4.0 mph6.4 kmh 30.31 in1026.4 mb 0.00 in0.0 mm 0.00 in/hr0.0 mm/hr 0.00 in0.0 mm
12:40 AM 57.9°F14.4°C 48.9°F9.4°C 72% 2.8 mph ENE4.5 kmh ENE 4.0 mph6.4 kmh 30.31 in1026.4 mb 0.00 in0.0 mm 0.00 in/hr0.0 mm/hr 0.00 in0.0 mm
12:30 AM 57.7°F14.3°C 49.1°F9.5°C 73% 4.6 mph ENE7.4 kmh ENE 6.0 mph9.7 kmh 30.31 in1026.4 mb 0.00 in0.0 mm 0.00 in/hr0.0 mm/hr 0.00 in0.0 mm
12:20 AM 57.9°F14.4°C 49.3°F9.6°C 73% 3.0 mph ENE4.8 kmh ENE 4.0 mph6.4 kmh 30.31 in1026.4 mb 0.00 in0.0 mm 0.00 in/hr0.0 mm/hr 0.00 in0.0 mm
12:10 AM 57.9°F14.4°C 49.3°F9.6°C 73% 3.3 mph ENE5.3 kmh ENE 6.0 mph9.7 kmh 30.31 in1026.4 mb 0.00 in0.0 mm 0.00 in/hr0.0 mm/hr 0.00 in0.0 mm
12:00 AM 58.2°F14.6°C 49.2°F9.6°C 72% 3.5 mph ENE5.6 kmh ENE 6.0 mph9.7 kmh 30.31 in1026.4 mb 0.00 in0.0 mm 0.00 in/hr0.0 mm/hr 0.00 in0.0 mm